Austinville, Virginia
Current Conditions -  °F | °C
As of 2:15 AM on Sunday 23 Nov 2014 (Local Time) from KHLX Reporting Station
Clear Clear  
Wind Chill:   Ceiling: Unl
Heat Index:   Visibility: 10mi
Dew Point: -8°   Wind: 5mph
Humidity: 43%   Direction: 220°SW
Pressure: 30.22"   Gusts: NA
Location:  36.85°N, 80.91°W
Report Text: KHLX 230715Z AUTO 22004KT 10SM CLR 04/M08 A3022 RMK AO2 T00351080
Loading
Personal Weather Stations






























Interactive Weather Map New forecast layout! Learn more

10-Day Weather Forecast

Advertisements
Track Severe Weather on mobile